MSC Giovanna — 3FRB9 — position and weather

sailwx.info

Track history (hours):
 
Tides and Currents Weather Stations Pressure Air Temp Water Temp Dewpoint Dewpoint Depression Visibility Wind Speed Wind Dir Waves Ship Positions

MSC Giovanna

Last reported at 2014-Sep-17 07:26 UTC. Time now 2014-Sep-21 04:08 UTC.
Position N 32°01' E 032°07'.

Length 178 m; draft 8.7 m.

Type: Ship (hazmat cat A). MMSI: 357702000.

Date/timePositionNaut miles runAvg speedWind from/ knotsBaromVisibWave heightAir tempDewpointWater temp
2014-Sep-17 07:26N 32°01' E 032°07'1414.6
2014-Sep-17 06:30N 32°01' E 032°23'1314.3
2014-Sep-17 05:33N 32°02' E 032°38'1514.4
2014-Sep-17 04:30N 32°02' E 032°56'1414.6
2014-Sep-17 03:33N 32°02' E 033°13'1514.9
2014-Sep-17 02:33N 32°02' E 033°30'1515.4
2014-Sep-17 01:33N 32°02' E 033°48'1614.9
2014-Sep-17 00:30N 32°01' E 034°07'1414.5
2014-Sep-16 23:33N 31°56' E 034°22'1513.7
2014-Sep-16 22:29N 31°51' E 034°38'27 0.8
2014-Sep-15 13:18N 32°19' E 034°38'1114.4
2014-Sep-15 12:32N 32°29' E 034°42'1414.5
2014-Sep-15 11:33N 32°43' E 034°47'  
2014-Sep-10 13:16N 38°08' E 015°35'1212.2
2014-Sep-10 12:17N 38°19' E 015°42'912.6
2014-Sep-10 11:33N 38°25' E 015°50'4 3.9
2014-Sep-10 10:29N 38°28' E 015°55'  
Track history (hours):
 
Tides and Currents Weather Stations Pressure Air Temp Water Temp Dewpoint Dewpoint Depression Visibility Wind Speed Wind Dir Waves Ship Positions

MSC Giovanna

Last reported at 2014-Sep-17 07:26 UTC. Time now 2014-Sep-21 04:08 UTC.
Position N 32°01' E 032°07'.

Length 178 m; draft 8.7 m.

Type: Ship (hazmat cat A). MMSI: 357702000.

Date/timePositionNaut miles runAvg speedWind from/ knotsBaromVisibWave heightAir tempDewpointWater temp
2014-Sep-17 07:26N 32°01' E 032°07'1414.6
2014-Sep-17 06:30N 32°01' E 032°23'1314.3
2014-Sep-17 05:33N 32°02' E 032°38'1514.4
2014-Sep-17 04:30N 32°02' E 032°56'1414.6
2014-Sep-17 03:33N 32°02' E 033°13'1514.9
2014-Sep-17 02:33N 32°02' E 033°30'1515.4
2014-Sep-17 01:33N 32°02' E 033°48'1614.9
2014-Sep-17 00:30N 32°01' E 034°07'1414.5
2014-Sep-16 23:33N 31°56' E 034°22'1513.7
2014-Sep-16 22:29N 31°51' E 034°38'27 0.8
2014-Sep-15 13:18N 32°19' E 034°38'1114.4
2014-Sep-15 12:32N 32°29' E 034°42'1414.5
2014-Sep-15 11:33N 32°43' E 034°47'  
2014-Sep-10 13:16N 38°08' E 015°35'1212.2
2014-Sep-10 12:17N 38°19' E 015°42'912.6
2014-Sep-10 11:33N 38°25' E 015°50'4 3.9
2014-Sep-10 10:29N 38°28' E 015°55'  

Dump ship's entire track history